createdAt,value
2023-03-11T00:00:59.268Z,21.91
2023-03-11T00:01:59.346Z,21.91
2023-03-11T00:02:59.414Z,21.91
2023-03-11T00:03:58.377Z,21.91
2023-03-11T00:04:59.496Z,21.90
2023-03-11T00:05:59.424Z,21.89
2023-03-11T00:06:59.500Z,21.89
2023-03-11T00:07:59.493Z,21.90
2023-03-11T00:08:59.531Z,21.90
2023-03-11T00:09:59.568Z,21.89
2023-03-11T00:10:59.598Z,21.89
2023-03-11T00:11:58.615Z,21.88
2023-03-11T00:12:59.665Z,21.88
2023-03-11T00:13:58.688Z,21.89
2023-03-11T00:14:59.741Z,21.88
2023-03-11T00:15:59.824Z,21.88
2023-03-11T00:16:59.780Z,21.88
2023-03-11T00:17:59.809Z,21.88
2023-03-11T00:18:59.861Z,21.88
2023-03-11T00:19:58.883Z,21.88
2023-03-11T00:20:59.925Z,21.88
2023-03-11T00:21:59.944Z,21.88
2023-03-11T00:22:59.985Z,21.88
2023-03-11T00:23:59.021Z,21.88
2023-03-11T00:25:00.055Z,21.87
2023-03-11T00:26:00.151Z,21.87
2023-03-11T00:27:00.131Z,21.86
2023-03-11T00:27:59.187Z,21.86
2023-03-11T00:29:00.202Z,21.87
2023-03-11T00:29:59.239Z,21.86
2023-03-11T00:30:59.323Z,21.86
2023-03-11T00:32:00.298Z,21.86
2023-03-11T00:33:00.360Z,21.86
2023-03-11T00:34:00.391Z,21.86
2023-03-11T00:35:00.458Z,21.86
2023-03-11T00:36:00.500Z,21.85
2023-03-11T00:37:00.495Z,21.86
2023-03-11T00:37:59.523Z,21.86
2023-03-11T00:38:59.608Z,21.85
2023-03-11T00:39:59.584Z,21.85
2023-03-11T00:41:00.623Z,21.85
2023-03-11T00:41:59.653Z,21.85
2023-03-11T00:43:00.763Z,21.85
2023-03-11T00:44:00.703Z,21.84
2023-03-11T00:44:59.747Z,21.84
2023-03-11T00:45:59.801Z,21.84
2023-03-11T00:46:59.790Z,21.84
2023-03-11T00:47:59.832Z,21.84
2023-03-11T00:49:00.872Z,21.83
2023-03-11T00:50:00.911Z,21.83
2023-03-11T00:51:00.957Z,21.83
2023-03-11T00:51:59.969Z,21.82
2023-03-11T00:53:01.010Z,21.83
2023-03-11T00:54:01.031Z,21.83
2023-03-11T00:55:01.059Z,21.82
2023-03-11T00:56:01.094Z,21.82
2023-03-11T00:57:01.139Z,21.82
2023-03-11T00:58:00.190Z,21.81
2023-03-11T00:59:00.210Z,21.81
2023-03-11T01:00:01.250Z,21.81
2023-03-11T01:01:01.329Z,21.81
2023-03-11T01:02:01.340Z,21.81
2023-03-11T01:03:01.359Z,21.81
2023-03-11T01:04:00.387Z,21.81
2023-03-11T01:05:01.413Z,21.80
2023-03-11T01:06:01.460Z,21.80
2023-03-11T01:07:01.528Z,21.81
2023-03-11T01:08:01.550Z,21.80
2023-03-11T01:09:01.573Z,21.79
2023-03-11T01:10:01.671Z,21.81
2023-03-11T01:11:01.634Z,21.80
2023-03-11T01:12:01.677Z,21.80
2023-03-11T01:13:01.718Z,21.80
2023-03-11T01:14:00.765Z,21.80
2023-03-11T01:15:01.454Z,21.80
2023-03-11T01:16:01.936Z,21.79
2023-03-11T01:17:01.864Z,21.79
2023-03-11T01:18:01.908Z,21.79
2023-03-11T01:19:01.953Z,21.78
2023-03-11T01:20:02.001Z,21.78
2023-03-11T01:21:02.040Z,21.78
2023-03-11T01:22:02.087Z,21.78
2023-03-11T01:23:02.148Z,21.78
2023-03-11T01:24:02.169Z,21.78
2023-03-11T01:25:02.194Z,21.78
2023-03-11T01:26:02.234Z,21.77
2023-03-11T01:27:02.380Z,21.77
2023-03-11T01:28:02.324Z,21.77
2023-03-11T01:29:01.359Z,21.76
2023-03-11T01:30:02.397Z,21.77
2023-03-11T01:31:02.491Z,21.76
2023-03-11T01:32:02.462Z,21.76
2023-03-11T01:33:02.516Z,21.75
2023-03-11T01:34:02.590Z,21.75
2023-03-11T01:35:02.612Z,21.76
2023-03-11T01:36:02.718Z,21.75
2023-03-11T01:37:02.684Z,21.75
2023-03-11T01:38:02.739Z,21.74
2023-03-11T01:39:02.814Z,21.74
2023-03-11T01:40:02.835Z,21.74
2023-03-11T01:41:02.854Z,21.74
2023-03-11T01:42:01.918Z,21.75
2023-03-11T01:43:02.939Z,21.74
2023-03-11T01:44:01.984Z,21.74
2023-03-11T01:45:03.049Z,21.73
2023-03-11T01:46:03.185Z,21.74
2023-03-11T01:47:03.111Z,21.73
2023-03-11T01:48:02.163Z,21.73
2023-03-11T01:49:03.190Z,21.73
2023-03-11T01:50:02.230Z,21.73
2023-03-11T01:51:03.283Z,21.73
2023-03-11T01:52:03.354Z,21.72
2023-03-11T01:53:03.368Z,21.73
2023-03-11T01:54:03.393Z,21.72
2023-03-11T01:55:03.471Z,21.72
2023-03-11T01:56:03.516Z,21.73
2023-03-11T01:57:03.530Z,21.72
2023-03-11T01:58:03.612Z,21.71
2023-03-11T01:59:03.622Z,21.72
2023-03-11T02:00:03.693Z,21.71
2023-03-11T02:01:02.725Z,21.71
2023-03-11T02:02:03.836Z,21.71
2023-03-11T02:03:02.873Z,21.70
2023-03-11T02:04:02.899Z,21.70
2023-03-11T02:05:03.953Z,21.70
2023-03-11T02:06:03.999Z,21.70
2023-03-11T02:07:03.041Z,21.70
2023-03-11T02:08:03.106Z,21.70
2023-03-11T02:09:03.152Z,21.69
2023-03-11T02:10:04.187Z,21.69
2023-03-11T02:11:04.254Z,21.69
2023-03-11T02:12:04.287Z,21.69
2023-03-11T02:13:04.319Z,21.69
2023-03-11T02:14:04.368Z,21.69
2023-03-11T02:15:04.436Z,21.69
2023-03-11T02:16:04.561Z,21.68
2023-03-11T02:17:03.533Z,21.67
2023-03-11T02:18:04.585Z,21.68
2023-03-11T02:19:03.645Z,21.67
2023-03-11T02:20:03.711Z,21.67
2023-03-11T02:21:03.736Z,21.67
2023-03-11T02:22:04.786Z,21.66
2023-03-11T02:23:04.833Z,21.67
2023-03-11T02:24:04.901Z,21.67
2023-03-11T02:25:04.965Z,21.66
2023-03-11T02:26:04.005Z,21.66
2023-03-11T02:27:05.071Z,21.66
2023-03-11T02:28:05.113Z,21.66
2023-03-11T02:29:04.146Z,21.65
2023-03-11T02:30:05.206Z,21.65
2023-03-11T02:31:05.298Z,21.65
2023-03-11T02:32:05.302Z,21.64
2023-03-11T02:33:05.369Z,21.65
2023-03-11T02:34:04.403Z,21.65
2023-03-11T02:35:05.455Z,21.64
2023-03-11T02:36:05.532Z,21.64
2023-03-11T02:37:05.571Z,21.64
2023-03-11T02:38:05.609Z,21.64
2023-03-11T02:39:05.666Z,21.63
2023-03-11T02:40:05.713Z,21.63
2023-03-11T02:41:05.765Z,21.63
2023-03-11T02:42:05.825Z,21.63
2023-03-11T02:43:05.900Z,21.62
2023-03-11T02:44:05.929Z,21.62
2023-03-11T02:45:05.993Z,21.62
2023-03-11T02:46:06.017Z,21.62
2023-03-11T02:47:06.248Z,21.62
2023-03-11T02:48:05.122Z,21.61
2023-03-11T02:49:06.177Z,21.61
2023-03-11T02:50:05.250Z,21.60
2023-03-11T02:51:06.316Z,21.61
2023-03-11T02:52:06.352Z,21.60
2023-03-11T02:53:06.444Z,21.60
2023-03-11T02:54:05.455Z,21.60
2023-03-11T02:55:06.524Z,21.60
2023-03-11T02:56:06.573Z,21.60
2023-03-11T02:57:06.634Z,21.60
2023-03-11T02:58:05.686Z,21.60
2023-03-11T02:59:05.772Z,21.60
2023-03-11T03:00:06.826Z,21.59
2023-03-11T03:01:06.932Z,21.59
2023-03-11T03:02:06.919Z,21.59
2023-03-11T03:03:06.981Z,21.58
2023-03-11T03:04:07.060Z,21.59
2023-03-11T03:05:07.123Z,21.58
2023-03-11T03:06:07.163Z,21.59
2023-03-11T03:07:07.212Z,21.59
2023-03-11T03:08:07.277Z,21.59
2023-03-11T03:09:07.415Z,21.58
2023-03-11T03:10:07.409Z,21.57
2023-03-11T03:11:07.458Z,21.57
2023-03-11T03:12:07.511Z,21.57
2023-03-11T03:13:07.559Z,21.57
2023-03-11T03:14:07.619Z,21.57
2023-03-11T03:15:07.722Z,21.57
2023-03-11T03:16:07.804Z,21.57
2023-03-11T03:17:07.905Z,21.57
2023-03-11T03:18:08.477Z,21.56
2023-03-11T03:19:07.900Z,21.56
2023-03-11T03:20:07.960Z,21.55
2023-03-11T03:21:07.024Z,21.56
2023-03-11T03:22:08.073Z,21.55
2023-03-11T03:23:08.140Z,21.55
2023-03-11T03:24:08.195Z,21.55
2023-03-11T03:25:08.280Z,21.55
2023-03-11T03:26:08.309Z,21.55
2023-03-11T03:27:08.357Z,21.55
2023-03-11T03:28:08.417Z,21.55
2023-03-11T03:29:08.493Z,21.54
2023-03-11T03:30:08.565Z,21.55
2023-03-11T03:31:08.622Z,21.54
2023-03-11T03:32:07.722Z,21.54
2023-03-11T03:33:07.721Z,21.54
2023-03-11T03:34:08.798Z,21.53
2023-03-11T03:35:08.884Z,21.52
2023-03-11T03:36:08.990Z,21.53
2023-03-11T03:37:08.980Z,21.53
2023-03-11T03:38:09.037Z,21.53
2023-03-11T03:39:09.110Z,21.53
2023-03-11T03:40:09.177Z,21.53
2023-03-11T03:41:09.992Z,21.53
2023-03-11T03:42:08.301Z,21.52
2023-03-11T03:43:09.348Z,21.53
2023-03-11T03:44:08.401Z,21.52
2023-03-11T03:45:09.551Z,21.52
2023-03-11T03:46:08.651Z,21.51
2023-03-11T03:47:08.632Z,21.52
2023-03-11T03:48:08.654Z,21.52
2023-03-11T03:49:09.698Z,21.52
2023-03-11T03:50:08.767Z,21.51
2023-03-11T03:51:08.854Z,21.51
2023-03-11T03:52:09.886Z,21.51
2023-03-11T03:53:08.956Z,21.51
2023-03-11T03:54:09.021Z,21.51
2023-03-11T03:55:10.059Z,21.51
2023-03-11T03:56:10.133Z,21.51
2023-03-11T03:57:10.188Z,21.51
2023-03-11T03:58:10.250Z,21.50
2023-03-11T03:59:10.300Z,21.50
2023-03-11T04:00:10.369Z,21.50
2023-03-11T04:01:09.436Z,21.50
2023-03-11T04:02:10.556Z,21.50
2023-03-11T04:03:10.620Z,21.50
2023-03-11T04:04:10.624Z,21.49
2023-03-11T04:05:09.701Z,21.50
2023-03-11T04:06:10.726Z,21.48
2023-03-11T04:07:10.796Z,21.49
2023-03-11T04:08:10.853Z,21.48
2023-03-11T04:09:10.905Z,21.48
2023-03-11T04:10:10.972Z,21.48
2023-03-11T04:11:11.052Z,21.47
2023-03-11T04:12:11.084Z,21.47
2023-03-11T04:13:11.161Z,21.46
2023-03-11T04:14:10.186Z,21.46
2023-03-11T04:15:11.228Z,21.46
2023-03-11T04:16:11.303Z,21.45
2023-03-11T04:17:11.335Z,21.46
2023-03-11T04:18:11.429Z,21.46
2023-03-11T04:19:10.513Z,21.45
2023-03-11T04:20:11.541Z,21.45
2023-03-11T04:21:11.596Z,21.44
2023-03-11T04:22:10.634Z,21.45
2023-03-11T04:23:10.701Z,21.44
2023-03-11T04:24:11.762Z,21.44
2023-03-11T04:25:10.809Z,21.44
2023-03-11T04:26:11.881Z,21.44
2023-03-11T04:27:11.916Z,21.44
2023-03-11T04:28:11.958Z,21.44
2023-03-11T04:29:12.016Z,21.43
2023-03-11T04:30:12.044Z,21.44
2023-03-11T04:31:12.133Z,21.44
2023-03-11T04:32:12.167Z,21.43
2023-03-11T04:33:11.159Z,21.43
2023-03-11T04:34:12.229Z,21.42
2023-03-11T04:35:12.276Z,21.43
2023-03-11T04:36:12.303Z,21.42
2023-03-11T04:37:12.344Z,21.42
2023-03-11T04:38:11.416Z,21.42
2023-03-11T04:39:12.460Z,21.42
2023-03-11T04:40:12.535Z,21.42
2023-03-11T04:41:12.591Z,21.42
2023-03-11T04:42:12.630Z,21.41
2023-03-11T04:43:12.690Z,21.41
2023-03-11T04:44:12.722Z,21.41
2023-03-11T04:45:12.779Z,21.41
2023-03-11T04:46:12.954Z,21.41
2023-03-11T04:47:11.890Z,21.40
2023-03-11T04:48:11.940Z,21.40
2023-03-11T04:49:12.976Z,21.40
2023-03-11T04:50:13.014Z,21.40
2023-03-11T04:51:12.052Z,21.40
2023-03-11T04:52:13.006Z,21.39
2023-03-11T04:53:13.004Z,21.40
2023-03-11T04:54:13.002Z,21.39
2023-03-11T04:55:12.990Z,21.40
2023-03-11T04:56:11.980Z,21.39
2023-03-11T04:57:12.973Z,21.38
2023-03-11T04:58:12.967Z,21.39
2023-03-11T04:59:11.961Z,21.38
2023-03-11T05:00:11.963Z,21.39
2023-03-11T05:01:13.012Z,21.39
2023-03-11T05:02:13.089Z,21.38
2023-03-11T05:03:11.974Z,21.38
2023-03-11T05:04:13.013Z,21.38
2023-03-11T05:05:11.910Z,21.38
2023-03-11T05:06:11.923Z,21.38
2023-03-11T05:07:12.933Z,21.37
2023-03-11T05:08:12.940Z,21.37
2023-03-11T05:09:12.893Z,21.37
2023-03-11T05:10:12.883Z,21.36
2023-03-11T05:11:11.870Z,21.37
2023-03-11T05:12:12.870Z,21.37
2023-03-11T05:13:11.864Z,21.36
2023-03-11T05:14:12.863Z,21.36
2023-03-11T05:15:11.834Z,21.36
2023-03-11T05:16:12.866Z,21.36
2023-03-11T05:17:12.834Z,21.35
2023-03-11T05:18:11.809Z,21.36
2023-03-11T05:19:12.808Z,21.35
2023-03-11T05:20:12.804Z,21.35
2023-03-11T05:21:12.802Z,21.36
2023-03-11T05:22:12.798Z,21.35
2023-03-11T05:23:12.809Z,21.35
2023-03-11T05:24:12.813Z,21.35
2023-03-11T05:25:12.864Z,21.35
2023-03-11T05:26:12.917Z,21.34
2023-03-11T05:27:12.953Z,21.34
2023-03-11T05:28:11.996Z,21.34
2023-03-11T05:29:13.066Z,21.34
2023-03-11T05:30:13.109Z,21.34
2023-03-11T05:31:13.216Z,21.33
2023-03-11T05:32:13.197Z,21.33
2023-03-11T05:33:13.221Z,21.33
2023-03-11T05:34:13.260Z,21.33
2023-03-11T05:35:12.296Z,21.34
2023-03-11T05:36:12.331Z,21.32
2023-03-11T05:37:13.354Z,21.33
2023-03-11T05:38:13.387Z,21.32
2023-03-11T05:39:13.453Z,21.33
2023-03-11T05:40:13.485Z,21.32
2023-03-11T05:41:13.455Z,21.32
2023-03-11T05:42:12.492Z,21.32
2023-03-11T05:43:13.507Z,21.32
2023-03-11T05:44:13.524Z,21.32
2023-03-11T05:45:13.535Z,21.31
2023-03-11T05:46:13.619Z,21.32
2023-03-11T05:47:13.605Z,21.31
2023-03-11T05:48:13.620Z,21.31
2023-03-11T05:49:13.648Z,21.31
2023-03-11T05:50:13.668Z,21.30
2023-03-11T05:51:13.693Z,21.30
2023-03-11T05:52:13.718Z,21.30
2023-03-11T05:53:12.743Z,21.30
2023-03-11T05:54:12.777Z,21.30
2023-03-11T05:55:13.808Z,21.30
2023-03-11T05:56:12.801Z,21.30
2023-03-11T05:57:13.817Z,21.30
2023-03-11T05:58:12.916Z,21.30
2023-03-11T05:59:16.403Z,21.29
2023-03-11T06:00:12.886Z,21.29
2023-03-11T06:01:13.856Z,21.28
2023-03-11T06:02:12.854Z,21.28
2023-03-11T06:03:13.852Z,21.28
2023-03-11T06:04:13.956Z,21.27
2023-03-11T06:05:14.214Z,21.28
2023-03-11T06:06:13.829Z,21.27
2023-03-11T06:07:12.818Z,21.28
2023-03-11T06:08:13.804Z,21.27
2023-03-11T06:09:12.798Z,21.27
2023-03-11T06:10:12.813Z,21.27
2023-03-11T06:11:12.813Z,21.27
2023-03-11T06:12:13.802Z,21.27
2023-03-11T06:13:12.783Z,21.26
2023-03-11T06:14:13.790Z,21.26
2023-03-11T06:15:13.756Z,21.25
2023-03-11T06:16:13.788Z,21.26
2023-03-11T06:17:13.758Z,21.26
2023-03-11T06:18:13.741Z,21.25
2023-03-11T06:19:13.732Z,21.26
2023-03-11T06:20:13.733Z,21.25
2023-03-11T06:21:13.727Z,21.25
2023-03-11T06:22:12.732Z,21.25
2023-03-11T06:23:12.715Z,21.25
2023-03-11T06:24:13.705Z,21.25
2023-03-11T06:25:13.696Z,21.25
2023-03-11T06:26:13.695Z,21.24
2023-03-11T06:27:13.700Z,21.24
2023-03-11T06:28:13.677Z,21.24
2023-03-11T06:29:13.664Z,21.24
2023-03-11T06:30:13.662Z,21.24
2023-03-11T06:31:13.723Z,21.24
2023-03-11T06:32:12.679Z,21.24
2023-03-11T06:33:12.625Z,21.24
2023-03-11T06:34:12.616Z,21.23
2023-03-11T06:35:12.613Z,21.23
2023-03-11T06:36:13.607Z,21.23
2023-03-11T06:37:13.614Z,21.22
2023-03-11T06:38:12.602Z,21.22
2023-03-11T06:39:13.584Z,21.23
2023-03-11T06:40:13.597Z,21.22
2023-03-11T06:41:12.579Z,21.22
2023-03-11T06:42:13.583Z,21.22
2023-03-11T06:43:13.597Z,21.22
2023-03-11T06:44:12.566Z,21.23
2023-03-11T06:45:13.551Z,21.21
2023-03-11T06:46:12.639Z,21.22
2023-03-11T06:47:13.549Z,21.22
2023-03-11T06:48:13.582Z,21.22
2023-03-11T06:49:13.587Z,21.21
2023-03-11T06:50:13.604Z,21.21
2023-03-11T06:51:13.631Z,21.21
2023-03-11T06:52:13.664Z,21.20
2023-03-11T06:53:12.644Z,21.21
2023-03-11T06:54:12.668Z,21.21
2023-03-11T06:55:13.702Z,21.21
2023-03-11T06:56:12.723Z,21.20
2023-03-11T06:57:13.717Z,21.20
2023-03-11T06:58:13.731Z,21.20
2023-03-11T06:59:13.784Z,21.20
2023-03-11T07:00:13.783Z,21.20
2023-03-11T07:01:13.823Z,21.20
2023-03-11T07:02:12.823Z,21.19
2023-03-11T07:03:13.834Z,21.20
2023-03-11T07:04:13.904Z,21.20
2023-03-11T07:05:13.867Z,21.19
2023-03-11T07:06:13.884Z,21.19
2023-03-11T07:07:13.933Z,21.19
2023-03-11T07:08:13.932Z,21.19
2023-03-11T07:09:12.968Z,21.19
2023-03-11T07:10:14.023Z,21.19
2023-03-11T07:11:12.997Z,21.19
2023-03-11T07:12:13.994Z,21.18
2023-03-11T07:13:14.137Z,21.18
2023-03-11T07:14:13.041Z,21.18
2023-03-11T07:15:14.603Z,21.17
2023-03-11T07:16:14.373Z,21.17
2023-03-11T07:17:14.186Z,21.17
2023-03-11T07:18:13.101Z,21.17
2023-03-11T07:19:14.336Z,21.17
2023-03-11T07:20:14.364Z,21.17
2023-03-11T07:21:14.293Z,21.16
2023-03-11T07:22:14.163Z,21.16
2023-03-11T07:23:13.172Z,21.16
2023-03-11T07:24:13.195Z,21.16
2023-03-11T07:25:15.073Z,21.16
2023-03-11T07:26:14.361Z,21.16
2023-03-11T07:27:14.222Z,21.16
2023-03-11T07:28:14.257Z,21.16
2023-03-11T07:29:14.264Z,21.16
2023-03-11T07:30:14.744Z,21.15
2023-03-11T07:31:14.359Z,21.15
2023-03-11T07:32:14.460Z,21.15
2023-03-11T07:33:14.048Z,21.15
2023-03-11T07:34:14.159Z,21.15
2023-03-11T07:35:14.392Z,21.15
2023-03-11T07:36:14.416Z,21.15
2023-03-11T07:37:14.205Z,21.15
2023-03-11T07:38:14.446Z,21.15
2023-03-11T07:39:14.912Z,21.14
2023-03-11T07:40:15.030Z,21.14
2023-03-11T07:41:14.541Z,21.14
2023-03-11T07:42:13.540Z,21.14
2023-03-11T07:43:15.153Z,21.14
2023-03-11T07:44:14.578Z,21.14
2023-03-11T07:45:15.273Z,21.14
2023-03-11T07:46:14.037Z,21.14
2023-03-11T07:47:14.661Z,21.13
2023-03-11T07:48:14.955Z,21.13
2023-03-11T07:49:14.043Z,21.13
2023-03-11T07:50:14.692Z,21.13
2023-03-11T07:51:14.707Z,21.14
2023-03-11T07:52:14.736Z,21.13
2023-03-11T07:53:14.783Z,21.12
2023-03-11T07:54:13.788Z,21.12
2023-03-11T07:55:13.813Z,21.12
2023-03-11T07:56:14.846Z,21.12
2023-03-11T07:57:14.853Z,21.12
2023-03-11T07:58:14.873Z,21.11
2023-03-11T07:59:13.882Z,21.11
2023-03-11T08:00:14.889Z,21.12
2023-03-11T08:01:14.907Z,21.11
2023-03-11T08:02:15.035Z,21.11
2023-03-11T08:03:14.025Z,21.11
2023-03-11T08:04:14.985Z,21.11
2023-03-11T08:05:14.020Z,21.11
2023-03-11T08:06:14.054Z,21.11
2023-03-11T08:07:15.057Z,21.11
2023-03-11T08:08:15.096Z,21.10
2023-03-11T08:09:14.134Z,21.10
2023-03-11T08:10:14.136Z,21.10
2023-03-11T08:11:14.135Z,21.10
2023-03-11T08:12:15.189Z,21.11
2023-03-11T08:13:15.179Z,21.10
2023-03-11T08:14:15.197Z,21.10
2023-03-11T08:15:15.228Z,21.10
2023-03-11T08:16:15.229Z,21.10
2023-03-11T08:17:15.258Z,21.10
2023-03-11T08:18:15.286Z,21.09
2023-03-11T08:19:14.337Z,21.09
2023-03-11T08:20:15.317Z,21.10
2023-03-11T08:21:15.336Z,21.10
2023-03-11T08:22:15.361Z,21.10
2023-03-11T08:23:14.383Z,21.09
2023-03-11T08:24:14.436Z,21.09
2023-03-11T08:25:15.420Z,21.09
2023-03-11T08:26:15.449Z,21.09
2023-03-11T08:27:14.455Z,21.09
2023-03-11T08:28:15.485Z,21.09
2023-03-11T08:29:15.502Z,21.09
2023-03-11T08:30:15.530Z,21.09
2023-03-11T08:31:14.613Z,21.08
2023-03-11T08:32:15.612Z,21.08
2023-03-11T08:33:15.604Z,21.09
2023-03-11T08:34:14.599Z,21.08
2023-03-11T08:35:15.682Z,21.07
2023-03-11T08:36:15.664Z,21.07
2023-03-11T08:37:15.687Z,21.07
2023-03-11T08:38:15.716Z,21.07
2023-03-11T08:39:15.783Z,21.07
2023-03-11T08:40:15.748Z,21.06
2023-03-11T08:41:15.773Z,21.06
2023-03-11T08:42:15.760Z,21.06
2023-03-11T08:43:14.813Z,21.07
2023-03-11T08:44:14.819Z,21.07
2023-03-11T08:45:15.843Z,21.06
2023-03-11T08:46:15.886Z,21.07
2023-03-11T08:47:15.863Z,21.06
2023-03-11T08:48:15.895Z,21.06
2023-03-11T08:49:14.911Z,21.06
2023-03-11T08:50:15.953Z,21.06
2023-03-11T08:51:15.990Z,21.06
2023-03-11T08:52:15.976Z,21.06
2023-03-11T08:53:15.991Z,21.06
2023-03-11T08:54:15.990Z,21.06
2023-03-11T08:55:15.011Z,21.05
2023-03-11T08:56:16.032Z,21.06
2023-03-11T08:57:16.056Z,21.06
2023-03-11T08:58:16.100Z,21.05
2023-03-11T08:59:16.092Z,21.06
2023-03-11T09:00:16.104Z,21.05
2023-03-11T09:01:15.140Z,21.05
2023-03-11T09:02:15.139Z,21.05
2023-03-11T09:03:15.154Z,21.05
2023-03-11T09:04:16.190Z,21.05
2023-03-11T09:05:16.200Z,21.06
2023-03-11T09:06:16.311Z,21.05
2023-03-11T09:07:16.266Z,21.04
2023-03-11T09:08:16.268Z,21.05
2023-03-11T09:09:15.285Z,21.04
2023-03-11T09:10:16.307Z,21.05
2023-03-11T09:11:16.311Z,21.05
2023-03-11T09:12:16.295Z,21.05
2023-03-11T09:13:15.304Z,21.04
2023-03-11T09:14:16.312Z,21.05
2023-03-11T09:15:15.315Z,21.04
2023-03-11T09:16:16.471Z,21.04
2023-03-11T09:17:16.344Z,21.04
2023-03-11T09:18:16.355Z,21.05
2023-03-11T09:19:15.372Z,21.05
2023-03-11T09:20:16.394Z,21.04
2023-03-11T09:21:16.409Z,21.04
2023-03-11T09:22:16.430Z,21.04
2023-03-11T09:23:16.471Z,21.04
2023-03-11T09:24:16.469Z,21.04
2023-03-11T09:25:15.490Z,21.04
2023-03-11T09:26:16.511Z,21.05
2023-03-11T09:27:16.506Z,21.04
2023-03-11T09:28:16.530Z,21.04
2023-03-11T09:29:16.544Z,21.04
2023-03-11T09:30:16.562Z,21.05
2023-03-11T09:31:16.766Z,21.05
2023-03-11T09:32:16.706Z,21.05
2023-03-11T09:33:16.665Z,21.04
2023-03-11T09:34:16.718Z,21.04
2023-03-11T09:35:16.740Z,21.04
2023-03-11T09:36:16.741Z,21.04
2023-03-11T09:37:15.777Z,21.04
2023-03-11T09:38:16.807Z,21.05
2023-03-11T09:39:16.893Z,21.04
2023-03-11T09:40:16.885Z,21.05
2023-03-11T09:41:16.930Z,21.04
2023-03-11T09:42:16.934Z,21.04
2023-03-11T09:43:16.949Z,21.04
2023-03-11T09:44:16.956Z,21.04
2023-03-11T09:45:16.975Z,21.04
2023-03-11T09:46:17.052Z,21.03
2023-03-11T09:47:15.999Z,21.05
2023-03-11T09:48:17.044Z,21.04
2023-03-11T09:49:17.058Z,21.04
2023-03-11T09:50:17.064Z,21.04
2023-03-11T09:51:16.070Z,21.05
2023-03-11T09:52:17.096Z,21.04
2023-03-11T09:53:17.112Z,21.04
2023-03-11T09:54:17.151Z,21.04
2023-03-11T09:55:16.204Z,21.05
2023-03-11T09:56:17.192Z,21.04
2023-03-11T09:57:17.208Z,21.04
2023-03-11T09:58:17.221Z,21.04
2023-03-11T09:59:16.230Z,21.05
2023-03-11T10:00:17.227Z,21.04
2023-03-11T10:01:17.237Z,21.04
2023-03-11T10:02:17.358Z,21.05
2023-03-11T10:03:17.334Z,21.04
2023-03-11T10:04:17.297Z,21.04
2023-03-11T10:05:17.318Z,21.05
2023-03-11T10:06:16.343Z,21.04
2023-03-11T10:07:17.391Z,21.05
2023-03-11T10:08:17.387Z,21.05
2023-03-11T10:09:17.445Z,21.04
2023-03-11T10:10:16.426Z,21.05
2023-03-11T10:11:17.458Z,21.05
2023-03-11T10:12:17.460Z,21.04
2023-03-11T10:13:16.476Z,21.05
2023-03-11T10:14:17.524Z,21.05
2023-03-11T10:15:17.531Z,21.05
2023-03-11T10:16:16.586Z,21.05
2023-03-11T10:17:16.551Z,21.05
2023-03-11T10:18:17.576Z,21.05
2023-03-11T10:19:17.616Z,21.04
2023-03-11T10:20:17.598Z,21.05
2023-03-11T10:21:17.615Z,21.05
2023-03-11T10:22:16.660Z,21.04
2023-03-11T10:23:17.679Z,21.05
2023-03-11T10:24:17.757Z,21.04
2023-03-11T10:25:17.727Z,21.05
2023-03-11T10:26:16.732Z,21.04
2023-03-11T10:27:17.791Z,21.04
2023-03-11T10:28:17.751Z,21.04
2023-03-11T10:29:17.809Z,21.04
2023-03-11T10:30:16.795Z,21.04
2023-03-11T10:31:17.861Z,21.04
2023-03-11T10:32:17.918Z,21.04
2023-03-11T10:33:17.871Z,21.04
2023-03-11T10:34:17.895Z,21.04
2023-03-11T10:35:17.912Z,21.03
2023-03-11T10:36:17.938Z,21.04
2023-03-11T10:37:17.953Z,21.03
2023-03-11T10:38:17.927Z,21.04
2023-03-11T10:39:16.945Z,21.03
2023-03-11T10:40:17.942Z,21.04
2023-03-11T10:41:17.937Z,21.03
2023-03-11T10:42:17.952Z,21.03
2023-03-11T10:43:17.992Z,21.03
2023-03-11T10:44:17.961Z,21.03
2023-03-11T10:45:17.973Z,21.02
2023-03-11T10:46:18.059Z,21.03
2023-03-11T10:47:17.989Z,21.02
2023-03-11T10:48:17.993Z,21.02
2023-03-11T10:49:18.016Z,21.03
2023-03-11T10:50:18.084Z,21.03
2023-03-11T10:51:18.136Z,21.03
2023-03-11T10:52:17.073Z,21.03
2023-03-11T10:53:18.126Z,21.03
2023-03-11T10:54:17.099Z,21.03
2023-03-11T10:55:18.140Z,21.02
2023-03-11T10:56:18.129Z,21.02
2023-03-11T10:57:17.138Z,21.02
2023-03-11T10:58:18.132Z,21.02
2023-03-11T10:59:18.268Z,21.02
2023-03-11T11:00:17.259Z,21.02
2023-03-11T11:01:18.226Z,21.02
2023-03-11T11:02:18.158Z,21.02
2023-03-11T11:03:17.192Z,21.03
2023-03-11T11:04:18.294Z,21.01
2023-03-11T11:05:17.210Z,21.02
2023-03-11T11:06:18.208Z,21.01
2023-03-11T11:07:18.215Z,21.02
2023-03-11T11:08:18.256Z,21.02
2023-03-11T11:09:18.270Z,21.01
2023-03-11T11:10:18.366Z,21.02
2023-03-11T11:11:18.319Z,21.02
2023-03-11T11:12:18.352Z,21.02
2023-03-11T11:13:18.384Z,21.02
2023-03-11T11:14:18.388Z,21.02
2023-03-11T11:15:18.418Z,21.02
2023-03-11T11:16:18.448Z,21.02
2023-03-11T11:17:18.402Z,21.02
2023-03-11T11:18:18.424Z,21.02
2023-03-11T11:19:18.704Z,21.02
2023-03-11T11:20:18.523Z,21.02
2023-03-11T11:21:17.460Z,21.01
2023-03-11T11:22:18.481Z,21.01
2023-03-11T11:23:18.511Z,21.01
2023-03-11T11:24:18.513Z,21.01
2023-03-11T11:25:18.562Z,21.01
2023-03-11T11:26:18.704Z,21.01
2023-03-11T11:27:18.554Z,21.01
2023-03-11T11:28:18.536Z,21.01
2023-03-11T11:29:18.531Z,21.01
2023-03-11T11:30:18.545Z,21.01
2023-03-11T11:31:18.630Z,21.00
2023-03-11T11:32:18.542Z,21.00
2023-03-11T11:33:18.516Z,21.00
2023-03-11T11:34:18.515Z,21.00
2023-03-11T11:35:18.572Z,21.00
2023-03-11T11:36:18.524Z,21.00
2023-03-11T11:37:18.522Z,20.99
2023-03-11T11:38:17.517Z,21.00
2023-03-11T11:39:17.527Z,21.00
2023-03-11T11:40:18.589Z,20.99
2023-03-11T11:41:17.540Z,20.99
2023-03-11T11:42:18.510Z,20.99
2023-03-11T11:43:18.537Z,20.99
2023-03-11T11:44:18.497Z,20.99
2023-03-11T11:45:17.489Z,20.99
2023-03-11T11:46:18.543Z,20.99
2023-03-11T11:47:18.510Z,20.99
2023-03-11T11:48:18.483Z,20.99
2023-03-11T11:49:17.490Z,20.99
2023-03-11T11:50:18.465Z,20.99
2023-03-11T11:51:17.510Z,20.99
2023-03-11T11:52:18.483Z,20.99
2023-03-11T11:53:18.470Z,20.98
2023-03-11T11:54:18.470Z,20.99
2023-03-11T11:55:17.478Z,20.98
2023-03-11T11:56:18.484Z,20.98
2023-03-11T11:57:19.185Z,20.98
2023-03-11T11:58:17.472Z,20.98
2023-03-11T11:59:18.472Z,20.99
2023-03-11T12:00:18.478Z,20.98
2023-03-11T12:01:18.484Z,20.98
2023-03-11T12:02:18.478Z,20.98
2023-03-11T12:03:18.551Z,20.97
2023-03-11T12:04:18.452Z,20.98
2023-03-11T12:05:18.472Z,20.98
2023-03-11T12:06:17.454Z,20.98
2023-03-11T12:07:18.447Z,20.97
2023-03-11T12:08:18.456Z,20.97
2023-03-11T12:09:18.429Z,20.98
2023-03-11T12:10:23.429Z,20.97
2023-03-11T12:11:18.447Z,20.96
2023-03-11T12:12:17.423Z,20.96
2023-03-11T12:13:18.397Z,20.97
2023-03-11T12:14:18.413Z,20.97
2023-03-11T12:15:18.429Z,20.97
2023-03-11T12:16:18.489Z,20.96
2023-03-11T12:17:17.385Z,20.97
2023-03-11T12:18:18.381Z,20.97
2023-03-11T12:19:18.400Z,20.96
2023-03-11T12:20:18.411Z,20.96
2023-03-11T12:21:18.385Z,20.97
2023-03-11T12:22:18.342Z,20.96
2023-03-11T12:23:17.329Z,20.96
2023-03-11T12:24:18.329Z,20.96
2023-03-11T12:25:17.328Z,20.96
2023-03-11T12:26:18.333Z,20.95
2023-03-11T12:27:18.327Z,20.95
2023-03-11T12:28:18.302Z,20.95
2023-03-11T12:29:17.302Z,20.95
2023-03-11T12:30:18.279Z,20.95
2023-03-11T12:31:18.302Z,20.95
2023-03-11T12:32:18.284Z,20.94
2023-03-11T12:33:18.283Z,20.95
2023-03-11T12:34:17.240Z,20.95
2023-03-11T12:35:17.277Z,20.95
2023-03-11T12:36:18.244Z,20.94
2023-03-11T12:37:18.226Z,20.94
2023-03-11T12:38:18.261Z,20.94
2023-03-11T12:39:18.228Z,20.95
2023-03-11T12:40:18.218Z,20.94
2023-03-11T12:41:20.313Z,20.94
2023-03-11T12:42:18.192Z,20.94
2023-03-11T12:43:18.184Z,20.94
2023-03-11T12:44:18.188Z,20.94
2023-03-11T12:45:18.199Z,20.94
2023-03-11T12:46:18.217Z,20.93
2023-03-11T12:47:18.162Z,20.93
2023-03-11T12:48:18.151Z,20.93
2023-03-11T12:49:17.151Z,20.93
2023-03-11T12:50:18.131Z,20.93
2023-03-11T12:51:18.176Z,20.93
2023-03-11T12:52:18.153Z,20.93
2023-03-11T12:53:18.111Z,20.93